Time;durP1;ratioP1;P1;durP2;ratioP2;P2;SDS_P1;SDS_P2;PMS_P1;PMS_P2;Temp;Humidity;BMP_temperature;BMP_pressure;BME280_temperature;BME280_humidity;BME280_pressure;Samples;Min_cycle;Max_cycle;Signal;HPM_P1;HPM_P2
2021/07/19 00:00:59;;;;;;;21.30;12.53;;;17.70;99.90;;;;;;21169092;28;20019;-78
2021/07/19 00:11:01;;;;;;;28.63;13.13;;;17.60;99.90;;;;;;21147808;28;20126;-78
2021/07/19 00:21:02;;;;;;;20.98;12.70;;;17.60;99.90;;;;;;21166434;28;20020;-78
2021/07/19 00:31:03;;;;;;;21.80;12.03;;;17.60;99.90;;;;;;21165817;28;20027;-78
2021/07/19 00:41:04;;;;;;;23.30;11.83;;;17.60;99.90;;;;;;21164966;28;20028;-79
2021/07/19 00:51:05;;;;;;;20.20;11.37;;;17.30;99.90;;;;;;21164221;28;20050;-78
2021/07/19 01:01:08;;;;;;;22.85;11.80;;;17.10;99.90;;;;;;21144859;28;20039;-78
2021/07/19 01:11:09;;;;;;;19.57;11.27;;;16.80;99.90;;;;;;21162390;28;20550;-77
2021/07/19 01:21:33;;;;;;;19.37;11.03;;;16.60;99.90;;;;;;21161049;28;20294;-78
2021/07/19 01:31:38;;;;;;;20.33;12.30;;;16.20;99.90;;;;;;21142658;28;20032;-78
2021/07/19 01:41:40;;;;;;;26.15;13.23;;;15.80;99.90;;;;;;21141952;28;20031;-77
2021/07/19 01:51:45;;;;;;;24.40;13.20;;;15.70;99.90;;;;;;21142346;28;20784;-78
2021/07/19 02:01:47;;;;;;;35.60;12.70;;;15.60;99.90;;;;;;21140591;28;20035;-78
2021/07/19 02:11:49;;;;;;;23.40;13.02;;;15.40;99.90;;;;;;21158215;28;20032;-77
2021/07/19 02:21:50;;;;;;;22.10;11.65;;;15.40;99.90;;;;;;21139669;28;20038;-78
2021/07/19 02:31:57;;;;;;;22.63;11.20;;;15.40;99.90;;;;;;21139275;28;20051;-77
2021/07/19 02:42:01;;;;;;;22.10;11.97;;;15.30;99.90;;;;;;21154442;28;20031;-78
2021/07/19 02:52:04;;;;;;;23.23;12.55;;;15.10;99.90;;;;;;21155179;28;20023;-78
2021/07/19 03:02:10;;;;;;;24.08;12.85;;;15.00;99.90;;;;;;21172801;28;20432;-77
2021/07/19 03:12:13;;;;;;;27.02;13.13;;;14.90;99.90;;;;;;21172349;28;20055;-78
2021/07/19 03:22:17;;;;;;;26.35;12.25;;;14.90;99.90;;;;;;21153053;28;20527;-78
2021/07/19 03:32:33;;;;;;;19.40;11.40;;;14.80;99.90;;;;;;21170656;28;20028;-77
2021/07/19 03:42:42;;;;;;;20.92;11.23;;;14.80;99.90;;;;;;21152731;28;20052;-78
2021/07/19 03:52:43;;;;;;;23.88;11.85;;;14.60;99.90;;;;;;21150461;28;20074;-78
2021/07/19 04:02:52;;;;;;;21.23;11.82;;;14.50;99.90;;;;;;21149944;28;20028;-78
2021/07/19 04:12:55;;;;;;;22.95;12.25;;;14.50;99.90;;;;;;21168146;28;20115;-78
2021/07/19 04:23:01;;;;;;;23.15;12.40;;;14.60;99.90;;;;;;21154776;28;20552;-78
2021/07/19 04:33:05;;;;;;;22.40;11.25;;;14.80;99.90;;;;;;21134022;28;20055;-78
2021/07/19 04:43:06;;;;;;;17.60;8.57;;;14.80;99.90;;;;;;21149188;28;20035;-78
2021/07/19 04:53:09;;;;;;;22.63;11.27;;;14.60;99.90;;;;;;21166423;28;20502;-79
2021/07/19 05:03:10;;;;;;;17.70;9.95;;;15.10;99.90;;;;;;21165942;28;20027;-78
2021/07/19 05:13:13;;;;;;;16.80;10.17;;;15.50;99.90;;;;;;21167734;28;20068;-78
2021/07/19 05:23:19;;;;;;;16.48;10.05;;;15.70;99.90;;;;;;21104366;28;20040;-79
2021/07/19 05:33:23;;;;;;;21.60;11.40;;;16.00;99.90;;;;;;21108384;28;20063;-79
2021/07/19 05:43:24;;;;;;;22.42;11.68;;;16.40;99.90;;;;;;21058754;22;20122;-80
2021/07/19 05:53:25;;;;;;;18.47;11.07;;;16.60;99.90;;;;;;21062059;28;20492;-79
2021/07/19 06:03:26;;;;;;;27.93;12.47;;;17.20;99.90;;;;;;21059224;28;20059;-78
2021/07/19 06:13:27;;;;;;;20.67;12.67;;;17.50;99.90;;;;;;21002147;28;20493;-78
2021/07/19 06:23:27;;;;;;;23.87;11.63;;;17.80;99.90;;;;;;20960371;28;20068;-80
2021/07/19 06:33:28;;;;;;;20.90;11.20;;;18.10;99.90;;;;;;20996279;28;20036;-79
2021/07/19 06:43:29;;;;;;;17.13;10.30;;;18.50;99.90;;;;;;20997944;28;20029;-79
2021/07/19 06:53:30;;;;;;;18.30;10.10;;;18.90;99.90;;;;;;20993141;28;20052;-81
2021/07/19 07:03:31;;;;;;;16.90;9.77;;;19.70;99.90;;;;;;20990652;28;20086;-78
2021/07/19 07:13:32;;;;;;;15.63;9.43;;;20.20;99.90;;;;;;20972185;28;20071;-79
2021/07/19 07:23:32;;;;;;;17.07;9.50;;;20.60;99.90;;;;;;21000090;28;20033;-79
2021/07/19 07:33:33;;;;;;;21.37;9.00;;;21.40;99.90;;;;;;21009288;28;20047;-79
2021/07/19 07:43:34;;;;;;;13.83;8.57;;;21.90;99.90;;;;;;21005539;28;20044;-79
2021/07/19 07:53:35;;;;;;;13.47;8.23;;;22.30;99.90;;;;;;21008800;28;20031;-79
2021/07/19 08:03:36;;;;;;;15.73;6.30;;;23.20;99.90;;;;;;20989797;28;20489;-81
2021/07/19 08:13:37;;;;;;;13.10;6.10;;;23.90;99.90;;;;;;21003004;28;20439;-80
2021/07/19 08:23:38;;;;;;;13.40;6.05;;;24.50;99.90;;;;;;20988267;28;20286;-81
2021/07/19 08:33:39;;;;;;;13.52;5.63;;;24.40;99.90;;;;;;20989324;28;20033;-81
2021/07/19 08:43:40;;;;;;;;;;;25.30;99.90;;;;;;20991456;28;20519;-80
2021/07/19 08:53:43;;;;;;;7.13;4.95;;;26.10;99.90;;;;;;21005343;28;19912;-79
2021/07/19 09:03:46;;;;;;;8.32;4.40;;;26.30;99.90;;;;;;21002575;28;20115;-79
2021/07/19 09:13:59;;;;;;;6.47;3.78;;;26.90;99.90;;;;;;21010975;28;20452;-81
2021/07/19 09:24:12;;;;;;;5.07;3.45;;;27.60;99.90;;;;;;20993291;28;20549;-81
2021/07/19 09:34:15;;;;;;;7.68;3.80;;;28.30;99.90;;;;;;20992101;28;20047;-81
2021/07/19 09:44:16;;;;;;;6.63;3.13;;;28.30;99.90;;;;;;20991156;28;20076;-80
2021/07/19 09:54:17;;;;;;;8.00;3.22;;;28.40;99.90;;;;;;21011479;28;20024;-80
2021/07/19 10:04:19;;;;;;;4.05;3.08;;;29.10;99.90;;;;;;21010555;28;20059;-81
2021/07/19 10:14:35;;;;;;;5.05;2.92;;;29.30;99.90;;;;;;20990101;28;20056;-81
2021/07/19 10:24:39;;;;;;;4.85;2.72;;;29.10;99.90;;;;;;21008979;28;20412;-80
2021/07/19 10:34:42;;;;;;;4.68;2.67;;;29.90;99.90;;;;;;21012497;28;20111;-79
2021/07/19 10:44:43;;;;;;;6.03;2.47;;;29.90;99.90;;;;;;20993644;28;20044;-82
2021/07/19 10:54:49;;;;;;;6.13;2.55;;;30.40;99.90;;;;;;21007438;28;20032;-81
2021/07/19 11:04:50;;;;;;;7.22;2.60;;;30.80;99.90;;;;;;21020361;28;20082;-80
2021/07/19 11:14:55;;;;;;;3.83;2.20;;;31.20;99.90;;;;;;21000369;28;20036;-79
2021/07/19 11:25:15;;;;;;;2.70;2.15;;;31.60;99.90;;;;;;20988807;28;20028;-82
2021/07/19 11:35:19;;;;;;;4.60;2.13;;;31.50;99.90;;;;;;21027610;28;20024;-79
2021/07/19 11:45:20;;;;;;;5.13;2.10;;;31.40;99.90;;;;;;20885971;22;20045;-79
2021/07/19 11:55:24;;;;;;;4.40;2.00;;;31.70;99.90;;;;;;20918553;28;20029;-80
2021/07/19 12:05:25;;;;;;;5.55;2.30;;;31.40;99.90;;;;;;20931605;28;20028;-80
2021/07/19 12:15:26;;;;;;;3.85;2.35;;;31.50;99.90;;;;;;20926463;28;20036;-79
2021/07/19 12:25:27;;;;;;;3.15;2.25;;;31.30;99.90;;;;;;20929177;28;20429;-78
2021/07/19 12:35:31;;;;;;;7.05;2.47;;;32.00;99.90;;;;;;20911315;28;20025;-77
2021/07/19 12:45:32;;;;;;;8.68;2.38;;;32.10;99.90;;;;;;20924833;28;20029;-80
2021/07/19 12:55:33;;;;;;;5.53;2.63;;;32.30;99.90;;;;;;20922103;28;20029;-80
2021/07/19 13:05:34;;;;;;;6.22;2.58;;;32.40;99.90;;;;;;20922147;28;20037;-78
2021/07/19 13:15:35;;;;;;;9.00;3.00;;;32.10;99.90;;;;;;20921303;28;20079;-79
2021/07/19 13:25:36;;;;;;;9.13;2.53;;;32.10;99.90;;;;;;20923593;28;20033;-79
2021/07/19 13:35:46;;;;;;;10.43;2.30;;;32.50;99.90;;;;;;20926642;28;20025;-80
2021/07/19 13:45:49;;;;;;;7.90;2.70;;;32.60;99.90;;;;;;20897725;28;20412;-79
2021/07/19 13:55:57;;;;;;;5.60;3.20;;;31.50;99.90;;;;;;20915841;28;20032;-79
2021/07/19 14:05:59;;;;;;;5.15;2.22;;;31.20;99.90;;;;;;20917925;28;20028;-78
2021/07/19 14:16:00;;;;;;;6.97;2.67;;;31.60;99.90;;;;;;20916610;28;20025;-78
2021/07/19 14:26:01;;;;;;;8.07;3.13;;;32.40;99.90;;;;;;20914568;28;20517;-79
2021/07/19 14:36:04;;;;;;;7.88;3.50;;;30.10;99.90;;;;;;20924005;28;20466;-79
2021/07/19 14:46:09;;;;;;;9.75;4.00;;;29.70;99.90;;;;;;20926524;28;20041;-78
2021/07/19 14:56:09;;;;;;;9.63;4.47;;;29.70;99.90;;;;;;20924417;28;20125;-77
2021/07/19 15:06:11;;;;;;;9.40;3.88;;;28.20;99.90;;;;;;20923327;28;20467;-78
2021/07/19 15:16:11;;;;;;;7.78;3.88;;;28.10;99.90;;;;;;20916894;28;20029;-78
2021/07/19 15:26:12;;;;;;;8.15;4.03;;;27.70;99.90;;;;;;20893837;28;20048;-78
2021/07/19 15:36:16;;;;;;;6.53;3.70;;;26.80;99.90;;;;;;20925803;28;20033;-78
2021/07/19 15:46:18;;;;;;;12.13;3.30;;;26.90;99.90;;;;;;20981350;28;20586;-78
2021/07/19 15:56:19;;;;;;;7.53;3.10;;;28.60;99.90;;;;;;20982585;28;20111;-77
2021/07/19 16:06:20;;;;;;;6.88;3.03;;;29.40;99.90;;;;;;20981270;28;20036;-77
2021/07/19 16:16:21;;;;;;;11.07;3.63;;;28.70;99.90;;;;;;20923077;28;20070;-77
2021/07/19 16:26:22;;;;;;;9.52;2.88;;;28.10;99.90;;;;;;20892995;28;20051;-77
2021/07/19 16:36:24;;;;;;;7.13;2.87;;;24.20;99.90;;;;;;20877069;28;20399;-76
2021/07/19 16:46:25;;;;;;;15.18;2.13;;;21.00;99.90;;;;;;20875926;28;20142;-76
2021/07/19 16:56:26;;;;;;;9.37;2.37;;;19.70;99.90;;;;;;20926416;28;20025;-76
2021/07/19 17:06:26;;;;;;;9.40;2.20;;;19.50;99.90;;;;;;20872402;28;20039;-77
2021/07/19 17:16:28;;;;;;;10.73;2.40;;;19.50;99.90;;;;;;20891512;28;20033;-76
2021/07/19 17:26:29;;;;;;;8.90;2.20;;;19.90;99.90;;;;;;20889145;28;20037;-77
2021/07/19 17:36:30;;;;;;;6.13;3.03;;;20.70;99.90;;;;;;20886730;28;20431;-77
2021/07/19 17:46:31;;;;;;;16.67;3.73;;;21.60;99.90;;;;;;21077854;23;20050;-82
2021/07/19 17:56:32;;;;;;;8.33;2.77;;;22.10;99.90;;;;;;21093805;28;20043;-81
2021/07/19 18:06:33;;;;;;;7.80;2.97;;;22.20;99.90;;;;;;21106030;28;20036;-82
2021/07/19 18:16:34;;;;;;;6.17;2.20;;;21.80;99.90;;;;;;21132583;28;20028;-81
2021/07/19 18:30:27;;;;;;;10.90;2.33;;;21.90;99.90;;;;;;21111301;28;20043;-79
2021/07/19 18:36:55;;;;;;;4.82;2.50;;;21.40;99.90;;;;;;21144416;28;20035;-81
2021/07/19 18:46:57;;;;;;;10.47;2.77;;;21.30;99.90;;;;;;21134822;28;20098;-81
2021/07/19 18:56:58;;;;;;;7.85;3.17;;;20.50;99.90;;;;;;21135320;28;20077;-78
2021/07/19 19:06:59;;;;;;;8.00;2.70;;;19.80;99.90;;;;;;21146959;28;20031;-78
2021/07/19 19:17:00;;;;;;;;;;;19.90;99.90;;;;;;21098255;28;20109;-79
2021/07/19 19:27:05;;;;;;;9.10;3.08;;;19.60;99.90;;;;;;21110824;28;19912;-77
2021/07/19 19:37:08;;;;;;;9.27;2.85;;;19.50;99.90;;;;;;21091381;28;20036;-78
2021/07/19 19:47:09;;;;;;;7.87;3.53;;;19.10;99.90;;;;;;21120898;28;20028;-80
2021/07/19 19:57:10;;;;;;;5.90;3.40;;;19.50;99.90;;;;;;21104177;28;20066;-81
2021/07/19 20:07:11;;;;;;;8.87;4.10;;;19.10;99.90;;;;;;21078128;28;20043;-80
2021/07/19 20:17:12;;;;;;;13.07;4.47;;;18.50;99.90;;;;;;21080159;28;20634;-79
2021/07/19 20:27:13;;;;;;;6.47;4.00;;;18.40;99.90;;;;;;21075290;28;20035;-81
2021/07/19 20:37:14;;;;;;;10.43;3.83;;;18.40;99.90;;;;;;21135197;28;20697;-80
2021/07/19 20:47:15;;;;;;;17.03;4.07;;;18.00;99.90;;;;;;21136298;28;20051;-80
2021/07/19 20:57:16;;;;;;;6.10;3.90;;;18.00;99.90;;;;;;21119992;28;20046;-80
2021/07/19 21:07:17;;;;;;;19.87;3.57;;;17.70;99.90;;;;;;21159446;28;20248;-81
2021/07/19 21:17:19;;;;;;;11.33;4.10;;;17.80;99.90;;;;;;21138749;28;20035;-81
2021/07/19 21:27:20;;;;;;;6.90;3.70;;;17.60;99.90;;;;;;21121162;28;20036;-79
2021/07/19 21:37:21;;;;;;;10.90;4.83;;;17.40;99.90;;;;;;21117652;28;20081;-78
2021/07/19 21:47:22;;;;;;;7.87;3.93;;;17.20;99.90;;;;;;21109908;28;20031;-80
2021/07/19 21:57:23;;;;;;;7.07;4.27;;;17.30;99.90;;;;;;21156716;27;20036;-79
2021/07/19 22:07:24;;;;;;;;;;;17.20;99.90;;;;;;21154965;28;20032;-79
2021/07/19 22:17:25;;;;;;;9.77;4.32;;;17.20;99.90;;;;;;21169440;27;19967;-81
2021/07/19 22:27:26;;;;;;;14.67;4.73;;;17.10;99.90;;;;;;21142306;28;20036;-78
2021/07/19 22:37:27;;;;;;;12.83;4.63;;;16.70;99.90;;;;;;21147207;28;20026;-79
2021/07/19 22:47:27;;;;;;;14.67;5.23;;;16.50;99.90;;;;;;21151771;28;20035;-79
2021/07/19 22:57:28;;;;;;;9.37;4.37;;;16.40;99.90;;;;;;21170986;28;20039;-79
2021/07/19 23:07:29;;;;;;;10.83;4.37;;;16.20;99.90;;;;;;21146192;28;20034;-81
2021/07/19 23:17:30;;;;;;;6.03;3.87;;;16.30;99.90;;;;;;21139655;28;20035;-79
2021/07/19 23:27:32;;;;;;;10.63;4.23;;;16.40;99.90;;;;;;21148664;28;20039;-80
2021/07/19 23:37:32;;;;;;;8.35;4.00;;;16.30;99.90;;;;;;21139485;22;20031;-79
2021/07/19 23:47:34;;;;;;;5.93;3.63;;;16.00;99.90;;;;;;20923013;28;20076;-78
2021/07/19 23:57:35;;;;;;;11.57;3.93;;;15.70;99.90;;;;;;20924266;28;20531;-78
